Hartford, Connecticut
Traffic Map
Current Weather Conditions
Hartford, Connecticut
Broken Clouds
Broken Clouds
29°
Feels Like: 31°
Wind Chill: 29° Ceiling: 6000
Heat Index: 31° Visibility: 10mi
Dew Point: 20° Wind: 5mph
Humidity: 57% Direction: 240° (WSW)
Pressure: 29.91in Gusts: 0mph
Raw Report DataKHFD 012053Z 24004KT 10SM SCT049 BKN060 BKN080 29/20 A2991 RMK AO2 SLP128 T02940200 56011
Traffic Incident Summary
Active as of:
Severity:
Category:
InformationThere was an issue retrieving the traffic information for this location. Please try a different location or try again shortly.
Advertisements
Track Severe Weather on mobile